createdAt,value
2019-03-28T00:01:06.228Z,48.90
2019-03-28T00:03:37.458Z,49.00
2019-03-28T00:06:08.734Z,49.10
2019-03-28T00:08:40.104Z,49.10
2019-03-28T00:11:11.348Z,49.20
2019-03-28T00:13:42.516Z,49.20
2019-03-28T00:16:13.795Z,49.30
2019-03-28T00:18:45.182Z,49.30
2019-03-28T00:21:16.522Z,49.30
2019-03-28T00:23:57.296Z,49.40
2019-03-28T00:26:30.571Z,49.50
2019-03-28T00:29:02.276Z,49.50
2019-03-28T00:31:33.865Z,49.50
2019-03-28T00:34:04.995Z,49.60
2019-03-28T00:36:36.215Z,49.60
2019-03-28T00:39:08.688Z,49.80
2019-03-28T00:41:39.755Z,49.80
2019-03-28T00:44:11.444Z,49.80
2019-03-28T00:46:43.958Z,49.90
2019-03-28T00:49:15.283Z,50.00
2019-03-28T00:51:47.381Z,50.00
2019-03-28T00:54:18.739Z,50.10
2019-03-28T00:56:49.983Z,50.20
2019-03-28T00:59:21.257Z,50.20
2019-03-28T01:01:53.090Z,50.30
2019-03-28T01:04:24.259Z,50.30
2019-03-28T01:06:55.965Z,50.40
2019-03-28T01:09:27.591Z,50.50
2019-03-28T01:11:58.873Z,50.60
2019-03-28T01:14:30.378Z,50.70
2019-03-28T01:17:01.534Z,50.80
2019-03-28T01:19:33.793Z,50.90
2019-03-28T01:22:04.889Z,51.00
2019-03-28T01:24:36.235Z,51.10
2019-03-28T01:27:07.624Z,51.20
2019-03-28T01:29:38.834Z,51.20
2019-03-28T01:32:10.027Z,51.40
2019-03-28T01:34:41.241Z,51.40
2019-03-28T01:37:12.382Z,51.50
2019-03-28T01:39:44.235Z,51.70
2019-03-28T01:42:15.471Z,51.70
2019-03-28T01:44:46.591Z,51.80
2019-03-28T01:47:18.131Z,51.90
2019-03-28T01:49:49.209Z,52.00
2019-03-28T01:52:20.268Z,52.20
2019-03-28T01:54:51.471Z,52.20
2019-03-28T01:57:23.208Z,52.30
2019-03-28T01:59:54.378Z,52.40
2019-03-28T02:02:25.964Z,52.50
2019-03-28T02:04:57.075Z,52.50
2019-03-28T02:07:28.291Z,52.60
2019-03-28T02:09:59.492Z,52.80
2019-03-28T02:12:31.133Z,52.70
2019-03-28T02:15:02.517Z,52.70
2019-03-28T02:17:34.079Z,52.80
2019-03-28T02:20:05.829Z,52.70
2019-03-28T02:22:36.914Z,52.70
2019-03-28T02:25:09.585Z,52.70
2019-03-28T02:27:40.884Z,53.40
2019-03-28T02:30:12.477Z,52.80
2019-03-28T02:32:43.793Z,52.80
2019-03-28T02:35:14.956Z,52.80
2019-03-28T02:37:46.119Z,52.80
2019-03-28T02:40:17.367Z,52.80
2019-03-28T02:42:48.657Z,52.90
2019-03-28T02:45:19.867Z,53.00
2019-03-28T02:47:51.026Z,53.00
2019-03-28T02:50:22.247Z,53.20
2019-03-28T02:52:53.480Z,53.20
2019-03-28T02:55:24.773Z,53.20
2019-03-28T02:57:56.302Z,53.20
2019-03-28T03:00:27.423Z,53.20
2019-03-28T03:02:58.552Z,53.30
2019-03-28T03:05:30.308Z,53.30
2019-03-28T03:08:01.467Z,53.30
2019-03-28T03:10:32.975Z,53.40
2019-03-28T03:13:04.135Z,53.40
2019-03-28T03:15:35.479Z,53.50
2019-03-28T03:18:07.777Z,53.50
2019-03-28T03:20:39.567Z,53.50
2019-03-28T03:23:10.740Z,53.50
2019-03-28T03:25:41.912Z,54.30
2019-03-28T03:28:13.626Z,53.70
2019-03-28T03:30:44.859Z,53.80
2019-03-28T03:33:16.436Z,53.80
2019-03-28T03:35:47.646Z,53.80
2019-03-28T03:38:19.252Z,53.90
2019-03-28T03:41:09.442Z,53.90
2019-03-28T03:43:41.982Z,53.90
2019-03-28T03:46:13.129Z,53.90
2019-03-28T03:48:44.695Z,54.00
2019-03-28T03:51:15.879Z,54.00
2019-03-28T03:53:47.095Z,54.00
2019-03-28T03:56:18.213Z,54.10
2019-03-28T03:58:49.324Z,54.10
2019-03-28T04:01:20.487Z,54.20
2019-03-28T04:03:51.584Z,54.20
2019-03-28T04:06:22.725Z,54.40
2019-03-28T04:08:54.106Z,54.30
2019-03-28T04:11:25.345Z,54.30
2019-03-28T04:13:56.473Z,54.40
2019-03-28T04:16:27.753Z,54.40
2019-03-28T04:18:58.999Z,54.50
2019-03-28T04:21:30.242Z,54.40
2019-03-28T04:24:01.329Z,55.20
2019-03-28T04:26:32.523Z,54.10
2019-03-28T04:29:04.711Z,54.70
2019-03-28T04:31:36.116Z,55.30
2019-03-28T04:34:08.756Z,54.80
2019-03-28T04:36:40.850Z,54.80
2019-03-28T04:39:12.430Z,54.90
2019-03-28T04:41:43.702Z,54.90
2019-03-28T04:44:14.891Z,54.90
2019-03-28T04:46:45.959Z,55.00
2019-03-28T04:49:17.230Z,54.90
2019-03-28T04:51:48.843Z,54.90
2019-03-28T04:54:20.151Z,55.00
2019-03-28T04:56:51.377Z,55.00
2019-03-28T04:59:22.697Z,55.00
2019-03-28T05:02:02.988Z,55.20
2019-03-28T05:04:26.785Z,55.30
2019-03-28T05:06:57.974Z,55.30
2019-03-28T05:09:29.095Z,55.30
2019-03-28T05:12:00.182Z,55.40
2019-03-28T05:14:32.506Z,55.40
2019-03-28T05:17:03.734Z,55.50
2019-03-28T05:19:35.039Z,55.50
2019-03-28T05:22:06.546Z,55.50
2019-03-28T05:24:38.883Z,55.50
2019-03-28T05:27:09.976Z,55.60
2019-03-28T05:29:41.230Z,55.60
2019-03-28T05:32:12.462Z,55.60
2019-03-28T05:34:43.619Z,55.60
2019-03-28T05:37:14.957Z,55.70
2019-03-28T05:39:46.155Z,55.70
2019-03-28T05:42:17.405Z,55.70
2019-03-28T05:44:48.500Z,55.80
2019-03-28T05:47:22.137Z,55.80
2019-03-28T05:49:52.635Z,55.80
2019-03-28T05:52:24.176Z,55.70
2019-03-28T05:54:55.482Z,55.60
2019-03-28T05:57:26.830Z,55.70
2019-03-28T05:59:57.909Z,55.70
2019-03-28T06:02:29.113Z,55.70
2019-03-28T06:05:00.537Z,55.70
2019-03-28T06:07:32.191Z,55.70
2019-03-28T06:10:03.313Z,55.70
2019-03-28T06:12:34.659Z,55.70
2019-03-28T06:15:07.339Z,55.40
2019-03-28T06:17:38.930Z,55.20
2019-03-28T06:20:11.032Z,55.20
2019-03-28T06:22:42.525Z,55.10
2019-03-28T06:25:14.557Z,55.10
2019-03-28T06:27:45.808Z,54.80
2019-03-28T06:30:18.353Z,54.60
2019-03-28T06:32:49.785Z,54.30
2019-03-28T06:35:22.010Z,54.20
2019-03-28T06:37:53.355Z,53.90
2019-03-28T06:40:24.573Z,53.60
2019-03-28T06:42:55.802Z,53.40
2019-03-28T06:45:28.023Z,53.30
2019-03-28T06:47:59.176Z,53.10
2019-03-28T06:50:30.399Z,52.70
2019-03-28T06:53:02.050Z,52.10
2019-03-28T06:55:33.299Z,51.50
2019-03-28T06:58:04.788Z,50.90
2019-03-28T07:00:36.058Z,50.80
2019-03-28T07:03:07.170Z,50.60
2019-03-28T07:05:38.375Z,50.70
2019-03-28T07:08:09.491Z,50.50
2019-03-28T07:10:40.930Z,50.10
2019-03-28T07:13:12.351Z,50.10
2019-03-28T07:15:43.506Z,50.00
2019-03-28T07:18:14.717Z,50.00
2019-03-28T07:20:46.012Z,49.90
2019-03-28T07:23:17.273Z,49.90
2019-03-28T07:25:48.451Z,50.00
2019-03-28T07:28:19.709Z,50.00
2019-03-28T07:30:50.863Z,49.70
2019-03-28T07:33:22.049Z,49.50
2019-03-28T07:35:53.161Z,49.80
2019-03-28T07:38:24.280Z,50.10
2019-03-28T07:40:55.471Z,49.90
2019-03-28T07:43:27.640Z,49.80
2019-03-28T07:45:58.747Z,49.80
2019-03-28T07:48:29.985Z,49.50
2019-03-28T07:51:01.239Z,49.20
2019-03-28T07:53:32.601Z,49.00
2019-03-28T07:56:03.841Z,48.80
2019-03-28T07:58:35.412Z,48.70
2019-03-28T08:01:06.874Z,48.70
2019-03-28T08:03:39.975Z,48.40
2019-03-28T08:06:12.713Z,48.50
2019-03-28T08:08:44.254Z,48.40
2019-03-28T08:11:15.760Z,47.90
2019-03-28T08:13:47.023Z,47.80
2019-03-28T08:16:18.162Z,47.50
2019-03-28T08:18:49.582Z,47.20
2019-03-28T08:21:21.181Z,47.00
2019-03-28T08:23:52.487Z,46.50
2019-03-28T08:26:23.939Z,46.10
2019-03-28T08:28:55.272Z,46.40
2019-03-28T08:31:26.419Z,46.50
2019-03-28T08:33:57.731Z,47.00
2019-03-28T08:36:29.782Z,47.10
2019-03-28T08:39:01.351Z,47.30
2019-03-28T08:41:34.273Z,47.00
2019-03-28T08:44:07.398Z,46.70
2019-03-28T08:46:38.884Z,46.70
2019-03-28T08:49:10.038Z,46.80
2019-03-28T08:51:41.704Z,47.00
2019-03-28T08:54:12.839Z,46.90
2019-03-28T08:56:44.428Z,47.40
2019-03-28T08:59:15.631Z,47.20
2019-03-28T09:01:46.850Z,47.30
2019-03-28T09:04:18.112Z,47.20
2019-03-28T09:06:49.282Z,46.90
2019-03-28T09:09:21.330Z,46.60
2019-03-28T09:11:53.847Z,46.20
2019-03-28T09:14:25.079Z,45.80
2019-03-28T09:16:56.473Z,45.90
2019-03-28T09:19:27.577Z,45.80
2019-03-28T09:21:58.798Z,45.90
2019-03-28T09:24:29.978Z,46.40
2019-03-28T09:27:01.106Z,46.40
2019-03-28T09:29:32.323Z,46.40
2019-03-28T09:32:03.847Z,46.40
2019-03-28T09:34:35.086Z,46.50
2019-03-28T09:37:06.302Z,46.30
2019-03-28T09:39:37.401Z,46.10
2019-03-28T09:42:08.507Z,45.80
2019-03-28T09:44:39.753Z,45.70
2019-03-28T09:47:11.058Z,45.70
2019-03-28T09:49:42.555Z,45.50
2019-03-28T09:52:13.628Z,45.30
2019-03-28T09:54:44.929Z,45.10
2019-03-28T09:57:16.244Z,44.70
2019-03-28T09:59:47.555Z,44.40
2019-03-28T10:02:18.693Z,44.30
2019-03-28T10:04:49.889Z,44.00
2019-03-28T10:07:21.139Z,43.80
2019-03-28T10:09:52.283Z,43.50
2019-03-28T10:12:23.491Z,43.40
2019-03-28T10:14:54.698Z,43.10
2019-03-28T10:17:25.856Z,42.70
2019-03-28T10:19:57.087Z,42.10
2019-03-28T10:22:28.312Z,41.90
2019-03-28T10:24:59.468Z,41.90
2019-03-28T10:27:30.620Z,42.40
2019-03-28T10:30:01.742Z,42.80
2019-03-28T10:32:33.991Z,43.30
2019-03-28T10:35:07.134Z,43.40
2019-03-28T10:37:50.090Z,43.80
2019-03-28T10:40:21.183Z,43.90
2019-03-28T10:42:52.370Z,43.90
2019-03-28T10:45:23.546Z,43.30
2019-03-28T10:47:54.800Z,43.20
2019-03-28T10:50:39.926Z,43.10
2019-03-28T10:52:58.640Z,42.60
2019-03-28T10:55:30.042Z,41.40
2019-03-28T10:58:01.184Z,41.30
2019-03-28T11:00:32.802Z,41.40
2019-03-28T11:03:04.794Z,41.30
2019-03-28T11:05:36.125Z,41.10
2019-03-28T11:08:07.575Z,40.80
2019-03-28T11:10:38.738Z,40.80
2019-03-28T11:13:10.024Z,41.00
2019-03-28T11:15:41.458Z,40.60
2019-03-28T11:18:13.737Z,40.50
2019-03-28T11:20:45.158Z,40.50
2019-03-28T11:23:16.690Z,40.20
2019-03-28T11:25:48.026Z,39.70
2019-03-28T11:28:19.506Z,39.70
2019-03-28T11:30:51.518Z,39.80
2019-03-28T11:33:22.696Z,39.70
2019-03-28T11:35:53.917Z,39.60
2019-03-28T11:38:25.146Z,39.80
2019-03-28T11:40:56.655Z,40.20
2019-03-28T11:43:27.811Z,40.50
2019-03-28T11:45:58.954Z,41.00
2019-03-28T11:48:30.043Z,41.00
2019-03-28T11:51:01.231Z,41.10
2019-03-28T11:53:32.396Z,41.60
2019-03-28T11:56:04.138Z,41.50
2019-03-28T11:58:35.301Z,41.40
2019-03-28T12:01:06.438Z,41.60
2019-03-28T12:03:37.772Z,41.70
2019-03-28T12:06:10.763Z,41.60
2019-03-28T12:08:41.997Z,41.70
2019-03-28T12:11:13.089Z,41.70
2019-03-28T12:13:45.312Z,41.40
2019-03-28T12:16:17.093Z,41.20
2019-03-28T12:18:48.587Z,40.90
2019-03-28T12:21:19.779Z,41.00
2019-03-28T12:23:50.895Z,40.90
2019-03-28T12:26:22.145Z,40.80
2019-03-28T12:28:54.295Z,40.80
2019-03-28T12:31:25.486Z,41.10
2019-03-28T12:33:57.173Z,41.10
2019-03-28T12:36:28.323Z,41.20
2019-03-28T12:38:59.391Z,41.40
2019-03-28T12:41:30.747Z,41.60
2019-03-28T12:44:02.034Z,41.90
2019-03-28T12:46:33.261Z,42.30
2019-03-28T12:49:04.471Z,42.40
2019-03-28T12:51:36.246Z,42.30
2019-03-28T12:54:07.526Z,42.60
2019-03-28T12:56:38.869Z,42.70
2019-03-28T12:59:09.990Z,42.80
2019-03-28T13:01:41.158Z,43.00
2019-03-28T13:04:12.331Z,43.20
2019-03-28T13:06:43.564Z,43.40
2019-03-28T13:09:15.675Z,43.00
2019-03-28T13:11:46.873Z,43.10
2019-03-28T13:14:18.058Z,43.00
2019-03-28T13:16:49.228Z,43.50
2019-03-28T13:19:20.376Z,43.50
2019-03-28T13:21:51.692Z,43.30
2019-03-28T13:24:22.925Z,43.10
2019-03-28T13:26:54.044Z,43.30
2019-03-28T13:29:25.312Z,43.10
2019-03-28T13:31:56.506Z,43.10
2019-03-28T13:34:27.576Z,42.90
2019-03-28T13:36:58.788Z,42.60
2019-03-28T13:39:30.030Z,42.50
2019-03-28T13:42:01.577Z,42.70
2019-03-28T13:44:32.757Z,42.80
2019-03-28T13:47:04.325Z,42.70
2019-03-28T13:49:35.435Z,42.80
2019-03-28T13:52:06.547Z,42.90
2019-03-28T13:54:37.618Z,43.20
2019-03-28T13:57:09.472Z,43.40
2019-03-28T13:59:40.611Z,44.10
2019-03-28T14:02:11.756Z,43.80
2019-03-28T14:04:43.171Z,43.90
2019-03-28T14:07:17.106Z,44.10
2019-03-28T14:09:47.147Z,44.10
2019-03-28T14:12:18.349Z,44.20
2019-03-28T14:14:49.571Z,44.10
2019-03-28T14:17:20.639Z,44.20
2019-03-28T14:19:51.953Z,44.10
2019-03-28T14:22:23.139Z,44.40
2019-03-28T14:24:54.709Z,44.50
2019-03-28T14:27:25.926Z,44.70
2019-03-28T14:29:57.017Z,44.40
2019-03-28T14:32:33.158Z,44.10
2019-03-28T14:35:05.881Z,44.40
2019-03-28T14:37:40.644Z,44.40
2019-03-28T14:40:11.488Z,44.80
2019-03-28T14:42:42.701Z,45.10
2019-03-28T14:45:14.228Z,45.20
2019-03-28T14:47:45.747Z,45.40
2019-03-28T14:50:21.093Z,45.50
2019-03-28T14:52:52.678Z,45.60
2019-03-28T14:55:24.057Z,45.70
2019-03-28T14:57:55.283Z,45.70
2019-03-28T15:00:47.325Z,45.70
2019-03-28T15:03:26.363Z,45.70
2019-03-28T15:05:52.393Z,45.70
2019-03-28T15:08:23.641Z,45.70
2019-03-28T15:10:54.858Z,45.70
2019-03-28T15:13:26.211Z,45.80
2019-03-28T15:15:57.406Z,45.90
2019-03-28T15:18:28.617Z,46.10
2019-03-28T15:21:00.504Z,46.20
2019-03-28T15:23:31.671Z,46.20
2019-03-28T15:26:02.793Z,46.20
2019-03-28T15:28:34.085Z,46.40
2019-03-28T15:31:05.523Z,46.40
2019-03-28T15:33:39.742Z,46.50
2019-03-28T15:36:09.535Z,46.60
2019-03-28T15:38:40.761Z,46.70
2019-03-28T15:41:13.106Z,46.60
2019-03-28T15:43:44.794Z,47.00
2019-03-28T15:46:15.910Z,47.10
2019-03-28T15:48:47.171Z,47.20
2019-03-28T15:51:18.357Z,47.40
2019-03-28T15:53:49.894Z,47.50
2019-03-28T15:56:21.059Z,47.70
2019-03-28T15:58:52.338Z,47.80
2019-03-28T16:01:23.637Z,47.80
2019-03-28T16:03:55.862Z,48.00
2019-03-28T16:06:26.970Z,48.10
2019-03-28T16:08:58.176Z,48.20
2019-03-28T16:11:29.462Z,48.20
2019-03-28T16:14:00.540Z,48.30
2019-03-28T16:16:31.713Z,48.30
2019-03-28T16:19:02.849Z,48.40
2019-03-28T16:21:34.451Z,48.30
2019-03-28T16:24:05.671Z,48.50
2019-03-28T16:26:37.850Z,48.50
2019-03-28T16:29:08.985Z,48.60
2019-03-28T16:31:40.124Z,48.70
2019-03-28T16:34:11.308Z,48.90
2019-03-28T16:36:42.579Z,48.90
2019-03-28T16:39:13.847Z,49.00
2019-03-28T16:41:45.075Z,49.00
2019-03-28T16:44:16.373Z,49.10
2019-03-28T16:46:47.926Z,49.20
2019-03-28T16:49:19.237Z,49.40
2019-03-28T16:51:51.811Z,49.90
2019-03-28T16:54:23.299Z,49.40
2019-03-28T16:56:54.475Z,49.60
2019-03-28T16:59:25.748Z,49.80
2019-03-28T17:01:56.921Z,50.00
2019-03-28T17:04:28.230Z,50.10
2019-03-28T17:07:00.512Z,50.10
2019-03-28T17:09:32.386Z,50.20
2019-03-28T17:12:03.615Z,50.30
2019-03-28T17:14:34.769Z,50.50
2019-03-28T17:17:05.918Z,50.50
2019-03-28T17:19:37.227Z,50.70
2019-03-28T17:22:09.543Z,50.80
2019-03-28T17:24:42.011Z,50.90
2019-03-28T17:27:13.106Z,51.00
2019-03-28T17:29:44.182Z,51.20
2019-03-28T17:32:15.538Z,51.20
2019-03-28T17:34:46.718Z,51.20
2019-03-28T17:37:18.924Z,51.40
2019-03-28T17:39:50.139Z,51.40
2019-03-28T17:42:22.431Z,51.60
2019-03-28T17:44:53.611Z,51.80
2019-03-28T17:47:24.844Z,51.90
2019-03-28T17:49:55.905Z,52.00
2019-03-28T17:52:27.686Z,52.10
2019-03-28T17:54:59.067Z,52.20
2019-03-28T17:57:30.318Z,52.20
2019-03-28T18:00:01.637Z,52.20
2019-03-28T18:02:34.175Z,52.40
2019-03-28T18:05:09.700Z,52.40
2019-03-28T18:07:38.544Z,52.50
2019-03-28T18:10:09.969Z,52.60
2019-03-28T18:12:41.050Z,52.50
2019-03-28T18:15:12.397Z,52.70
2019-03-28T18:17:43.632Z,52.80
2019-03-28T18:20:15.150Z,52.80
2019-03-28T18:22:46.293Z,52.90
2019-03-28T18:25:17.409Z,52.90
2019-03-28T18:27:48.551Z,53.00
2019-03-28T18:30:20.470Z,53.10
2019-03-28T18:32:52.157Z,53.10
2019-03-28T18:35:23.275Z,53.20
2019-03-28T18:37:54.486Z,53.30
2019-03-28T18:40:25.776Z,53.40
2019-03-28T18:42:57.972Z,53.50
2019-03-28T18:45:29.359Z,53.50
2019-03-28T18:48:00.504Z,53.70
2019-03-28T18:50:31.738Z,53.90
2019-03-28T18:53:02.987Z,53.80
2019-03-28T18:55:34.621Z,54.00
2019-03-28T18:58:05.947Z,54.30
2019-03-28T19:00:38.344Z,54.20
2019-03-28T19:03:09.577Z,54.10
2019-03-28T19:05:41.245Z,54.30
2019-03-28T19:08:12.445Z,54.30
2019-03-28T19:10:43.646Z,54.40
2019-03-28T19:13:15.433Z,54.60
2019-03-28T19:15:47.968Z,54.80
2019-03-28T19:18:19.205Z,54.80
2019-03-28T19:20:50.303Z,54.80
2019-03-28T19:23:21.493Z,55.10
2019-03-28T19:25:52.604Z,55.00
2019-03-28T19:28:29.263Z,55.10
2019-03-28T19:30:56.761Z,55.20
2019-03-28T19:33:28.608Z,55.30
2019-03-28T19:36:01.476Z,55.90
2019-03-28T19:38:34.105Z,55.50
2019-03-28T19:41:05.546Z,55.50
2019-03-28T19:43:37.743Z,55.70
2019-03-28T19:46:09.326Z,55.70
2019-03-28T19:48:40.915Z,55.80
2019-03-28T19:51:12.097Z,55.80
2019-03-28T19:53:43.930Z,55.90
2019-03-28T19:56:15.412Z,56.10
2019-03-28T19:58:46.632Z,56.10
2019-03-28T20:01:17.675Z,56.20
2019-03-28T20:03:48.789Z,56.30
2019-03-28T20:06:22.326Z,56.50
2019-03-28T20:08:52.798Z,56.50
2019-03-28T20:11:23.930Z,56.60
2019-03-28T20:13:55.253Z,56.70
2019-03-28T20:16:26.398Z,56.80
2019-03-28T20:18:57.999Z,56.90
2019-03-28T20:21:29.075Z,57.10
2019-03-28T20:24:00.286Z,57.30
2019-03-28T20:26:31.517Z,57.50
2019-03-28T20:29:03.203Z,57.50
2019-03-28T20:31:34.458Z,57.80
2019-03-28T20:34:06.904Z,57.80
2019-03-28T20:36:42.358Z,58.00
2019-03-28T20:39:11.603Z,58.10
2019-03-28T20:41:43.052Z,58.20
2019-03-28T20:44:14.257Z,58.40
2019-03-28T20:46:45.526Z,58.50
2019-03-28T20:49:17.300Z,58.60
2019-03-28T20:51:48.935Z,58.70
2019-03-28T20:54:20.354Z,59.00
2019-03-28T20:56:53.263Z,59.10
2019-03-28T20:59:24.792Z,59.30
2019-03-28T21:01:57.880Z,59.50
2019-03-28T21:04:31.521Z,59.10
2019-03-28T21:07:02.437Z,59.80
2019-03-28T21:09:34.043Z,60.00
2019-03-28T21:12:06.007Z,60.30
2019-03-28T21:14:37.525Z,60.40
2019-03-28T21:17:09.373Z,60.50
2019-03-28T21:19:41.172Z,60.70
2019-03-28T21:22:12.492Z,60.70
2019-03-28T21:24:43.732Z,61.10
2019-03-28T21:27:14.992Z,61.20
2019-03-28T21:29:49.127Z,61.40
2019-03-28T21:32:19.176Z,61.50
2019-03-28T21:34:51.750Z,61.50
2019-03-28T21:37:23.321Z,61.70
2019-03-28T21:39:54.757Z,61.90
2019-03-28T21:42:25.920Z,62.20
2019-03-28T21:44:58.528Z,62.10
2019-03-28T21:47:29.942Z,62.20
2019-03-28T21:50:01.767Z,62.40
2019-03-28T21:52:33.089Z,62.50
2019-03-28T21:55:04.583Z,62.70
2019-03-28T21:57:35.840Z,62.80
2019-03-28T22:00:08.345Z,63.00
2019-03-28T22:02:39.628Z,63.20
2019-03-28T22:05:10.827Z,63.20
2019-03-28T22:07:42.249Z,63.40
2019-03-28T22:10:13.937Z,63.40
2019-03-28T22:12:45.156Z,63.50
2019-03-28T22:15:16.246Z,63.70
2019-03-28T22:17:47.406Z,63.80
2019-03-28T22:20:18.604Z,63.90
2019-03-28T22:22:49.843Z,64.00
2019-03-28T22:25:21.082Z,64.20
2019-03-28T22:27:52.209Z,64.20
2019-03-28T22:30:23.414Z,64.30
2019-03-28T22:32:54.539Z,64.40
2019-03-28T22:35:25.972Z,64.60
2019-03-28T22:37:57.304Z,64.70
2019-03-28T22:40:28.515Z,64.90
2019-03-28T22:42:59.755Z,65.00
2019-03-28T22:45:30.852Z,65.10
2019-03-28T22:48:10.699Z,65.00
2019-03-28T22:50:35.010Z,65.30
2019-03-28T22:53:06.302Z,65.40
2019-03-28T22:55:37.758Z,65.60
2019-03-28T22:58:19.990Z,65.90
2019-03-28T23:00:55.337Z,65.80
2019-03-28T23:03:28.051Z,66.00
2019-03-28T23:05:59.187Z,65.90
2019-03-28T23:08:30.765Z,66.00
2019-03-28T23:11:01.899Z,66.20
2019-03-28T23:13:33.127Z,66.30
2019-03-28T23:16:04.478Z,66.50
2019-03-28T23:18:35.731Z,66.60
2019-03-28T23:21:06.992Z,66.70
2019-03-28T23:23:38.309Z,66.70
2019-03-28T23:26:09.563Z,67.00
2019-03-28T23:28:40.787Z,67.20
2019-03-28T23:31:12.034Z,67.10
2019-03-28T23:33:43.368Z,67.30
2019-03-28T23:36:14.441Z,67.40
2019-03-28T23:38:45.935Z,68.30
2019-03-28T23:41:17.462Z,67.50
2019-03-28T23:43:48.796Z,67.70
2019-03-28T23:46:19.882Z,67.70
2019-03-28T23:48:51.134Z,67.90
2019-03-28T23:51:22.314Z,67.90
2019-03-28T23:53:53.429Z,67.90
2019-03-28T23:56:24.677Z,67.80
2019-03-28T23:58:55.860Z,67.90
